sensor_id;sensor_type;location;lat;lon;timestamp;temperature;humidity
54960;DHT22;40860;51.710;8.736;2022-12-08T00:02:00;3.90;99.90
54960;DHT22;40860;51.710;8.736;2022-12-08T00:06:04;3.90;99.90
54960;DHT22;40860;51.710;8.736;2022-12-08T00:10:23;3.90;99.90
54960;DHT22;40860;51.710;8.736;2022-12-08T00:14:46;3.90;99.90
54960;DHT22;40860;51.710;8.736;2022-12-08T00:18:50;3.90;99.90
54960;DHT22;40860;51.710;8.736;2022-12-08T00:22:53;4.00;99.90
54960;DHT22;40860;51.710;8.736;2022-12-08T00:26:57;4.00;99.90
54960;DHT22;40860;51.710;8.736;2022-12-08T00:31:06;3.90;99.90
54960;DHT22;40860;51.710;8.736;2022-12-08T00:35:09;3.90;99.90
54960;DHT22;40860;51.710;8.736;2022-12-08T00:39:13;4.00;99.90
54960;DHT22;40860;51.710;8.736;2022-12-08T00:43:18;3.90;99.90
54960;DHT22;40860;51.710;8.736;2022-12-08T00:47:21;3.90;99.90
54960;DHT22;40860;51.710;8.736;2022-12-08T00:51:25;3.90;99.90
54960;DHT22;40860;51.710;8.736;2022-12-08T00:55:28;3.90;99.90
54960;DHT22;40860;51.710;8.736;2022-12-08T00:59:33;3.90;99.90
54960;DHT22;40860;51.710;8.736;2022-12-08T01:03:36;3.90;99.90
54960;DHT22;40860;51.710;8.736;2022-12-08T01:07:39;3.90;99.90
54960;DHT22;40860;51.710;8.736;2022-12-08T01:11:42;3.90;99.90
54960;DHT22;40860;51.710;8.736;2022-12-08T01:15:47;3.80;99.90
54960;DHT22;40860;51.710;8.736;2022-12-08T01:19:50;3.80;99.90
54960;DHT22;40860;51.710;8.736;2022-12-08T01:23:53;3.80;99.90
54960;DHT22;40860;51.710;8.736;2022-12-08T01:27:56;3.80;99.90
54960;DHT22;40860;51.710;8.736;2022-12-08T01:32:01;3.80;99.90
54960;DHT22;40860;51.710;8.736;2022-12-08T01:36:04;3.80;99.90
54960;DHT22;40860;51.710;8.736;2022-12-08T01:40:08;3.80;99.90
54960;DHT22;40860;51.710;8.736;2022-12-08T01:48:55;3.70;99.90
54960;DHT22;40860;51.710;8.736;2022-12-08T01:53:02;3.70;99.90
54960;DHT22;40860;51.710;8.736;2022-12-08T01:57:10;3.70;99.90
54960;DHT22;40860;51.710;8.736;2022-12-08T02:01:16;3.70;99.90
54960;DHT22;40860;51.710;8.736;2022-12-08T02:05:23;3.70;99.90
54960;DHT22;40860;51.710;8.736;2022-12-08T02:09:27;3.70;99.90
54960;DHT22;40860;51.710;8.736;2022-12-08T02:13:30;3.70;99.90
54960;DHT22;40860;51.710;8.736;2022-12-08T02:17:48;3.80;99.90
54960;DHT22;40860;51.710;8.736;2022-12-08T02:21:59;3.80;99.90
54960;DHT22;40860;51.710;8.736;2022-12-08T02:30:47;3.80;99.90
54960;DHT22;40860;51.710;8.736;2022-12-08T02:34:57;3.80;99.90
54960;DHT22;40860;51.710;8.736;2022-12-08T02:39:10;3.80;99.90
54960;DHT22;40860;51.710;8.736;2022-12-08T02:43:23;3.80;99.90
54960;DHT22;40860;51.710;8.736;2022-12-08T02:47:29;3.80;99.90
54960;DHT22;40860;51.710;8.736;2022-12-08T02:51:34;3.90;99.90
54960;DHT22;40860;51.710;8.736;2022-12-08T02:55:45;3.90;99.90
54960;DHT22;40860;51.710;8.736;2022-12-08T03:00:02;3.90;99.90
54960;DHT22;40860;51.710;8.736;2022-12-08T03:04:11;3.90;99.90
54960;DHT22;40860;51.710;8.736;2022-12-08T03:08:23;3.90;99.90
54960;DHT22;40860;51.710;8.736;2022-12-08T03:12:31;3.90;99.90
54960;DHT22;40860;51.710;8.736;2022-12-08T03:16:38;3.90;99.90
54960;DHT22;40860;51.710;8.736;2022-12-08T03:20:43;3.90;99.90
54960;DHT22;40860;51.710;8.736;2022-12-08T03:24:49;4.00;99.90
54960;DHT22;40860;51.710;8.736;2022-12-08T03:28:53;3.90;99.90
54960;DHT22;40860;51.710;8.736;2022-12-08T03:33:00;4.00;99.90
54960;DHT22;40860;51.710;8.736;2022-12-08T03:37:05;4.00;99.90
54960;DHT22;40860;51.710;8.736;2022-12-08T03:41:10;4.00;99.90
54960;DHT22;40860;51.710;8.736;2022-12-08T03:45:22;4.00;99.90
54960;DHT22;40860;51.710;8.736;2022-12-08T03:49:25;4.00;99.90
54960;DHT22;40860;51.710;8.736;2022-12-08T03:53:27;4.00;99.90
54960;DHT22;40860;51.710;8.736;2022-12-08T03:57:32;4.00;99.90
54960;DHT22;40860;51.710;8.736;2022-12-08T04:01:35;4.00;99.90
54960;DHT22;40860;51.710;8.736;2022-12-08T04:05:38;4.00;99.90
54960;DHT22;40860;51.710;8.736;2022-12-08T04:09:41;4.00;99.90
54960;DHT22;40860;51.710;8.736;2022-12-08T04:13:45;4.00;99.90
54960;DHT22;40860;51.710;8.736;2022-12-08T04:17:48;4.00;99.90
54960;DHT22;40860;51.710;8.736;2022-12-08T04:21:51;4.00;99.90
54960;DHT22;40860;51.710;8.736;2022-12-08T04:25:54;4.00;99.90
54960;DHT22;40860;51.710;8.736;2022-12-08T04:29:58;4.00;99.90
54960;DHT22;40860;51.710;8.736;2022-12-08T04:34:01;3.90;99.90
54960;DHT22;40860;51.710;8.736;2022-12-08T04:38:04;3.90;99.90
54960;DHT22;40860;51.710;8.736;2022-12-08T04:42:07;4.00;99.90
54960;DHT22;40860;51.710;8.736;2022-12-08T04:46:11;4.00;99.90
54960;DHT22;40860;51.710;8.736;2022-12-08T04:50:14;3.90;99.90
54960;DHT22;40860;51.710;8.736;2022-12-08T04:54:17;3.90;99.90
54960;DHT22;40860;51.710;8.736;2022-12-08T04:58:20;3.90;99.90
54960;DHT22;40860;51.710;8.736;2022-12-08T05:02:24;3.90;99.90
54960;DHT22;40860;51.710;8.736;2022-12-08T05:06:27;3.90;99.90
54960;DHT22;40860;51.710;8.736;2022-12-08T05:10:30;3.90;99.90
54960;DHT22;40860;51.710;8.736;2022-12-08T05:14:34;3.90;99.90
54960;DHT22;40860;51.710;8.736;2022-12-08T05:18:39;3.90;99.90
54960;DHT22;40860;51.710;8.736;2022-12-08T05:22:43;3.90;99.90
54960;DHT22;40860;51.710;8.736;2022-12-08T05:26:46;3.90;99.90
54960;DHT22;40860;51.710;8.736;2022-12-08T05:30:49;3.80;99.90
54960;DHT22;40860;51.710;8.736;2022-12-08T05:34:53;3.80;99.90
54960;DHT22;40860;51.710;8.736;2022-12-08T05:38:56;3.80;99.90
54960;DHT22;40860;51.710;8.736;2022-12-08T05:42:59;3.80;99.90
54960;DHT22;40860;51.710;8.736;2022-12-08T05:47:02;3.80;99.90
54960;DHT22;40860;51.710;8.736;2022-12-08T05:51:16;3.80;99.90
54960;DHT22;40860;51.710;8.736;2022-12-08T05:55:20;3.80;99.90
54960;DHT22;40860;51.710;8.736;2022-12-08T05:59:23;3.80;99.90
54960;DHT22;40860;51.710;8.736;2022-12-08T06:03:26;3.80;99.90
54960;DHT22;40860;51.710;8.736;2022-12-08T06:07:30;3.80;99.90
54960;DHT22;40860;51.710;8.736;2022-12-08T06:11:33;3.80;99.90
54960;DHT22;40860;51.710;8.736;2022-12-08T06:15:37;3.80;99.90
54960;DHT22;40860;51.710;8.736;2022-12-08T06:19:40;3.70;99.90
54960;DHT22;40860;51.710;8.736;2022-12-08T06:23:46;3.70;99.90
54960;DHT22;40860;51.710;8.736;2022-12-08T06:27:49;3.80;99.90
54960;DHT22;40860;51.710;8.736;2022-12-08T06:31:52;3.80;99.90
54960;DHT22;40860;51.710;8.736;2022-12-08T06:35:57;3.70;99.90
54960;DHT22;40860;51.710;8.736;2022-12-08T06:40:01;3.70;99.90
54960;DHT22;40860;51.710;8.736;2022-12-08T06:44:05;3.80;99.90
54960;DHT22;40860;51.710;8.736;2022-12-08T06:48:08;3.80;99.90
54960;DHT22;40860;51.710;8.736;2022-12-08T06:52:10;3.70;99.90
54960;DHT22;40860;51.710;8.736;2022-12-08T06:56:15;3.70;99.90
54960;DHT22;40860;51.710;8.736;2022-12-08T07:00:21;3.80;99.90
54960;DHT22;40860;51.710;8.736;2022-12-08T07:04:23;3.70;99.90
54960;DHT22;40860;51.710;8.736;2022-12-08T07:08:26;3.70;99.90
54960;DHT22;40860;51.710;8.736;2022-12-08T07:12:31;3.70;99.90
54960;DHT22;40860;51.710;8.736;2022-12-08T07:16:33;3.70;99.90
54960;DHT22;40860;51.710;8.736;2022-12-08T07:20:37;3.70;99.90
54960;DHT22;40860;51.710;8.736;2022-12-08T07:24:39;3.70;99.90
54960;DHT22;40860;51.710;8.736;2022-12-08T07:28:44;3.80;99.90
54960;DHT22;40860;51.710;8.736;2022-12-08T07:32:46;3.80;99.90
54960;DHT22;40860;51.710;8.736;2022-12-08T07:36:49;3.80;99.90
54960;DHT22;40860;51.710;8.736;2022-12-08T07:40:53;3.70;99.90
54960;DHT22;40860;51.710;8.736;2022-12-08T07:44:57;3.70;99.90
54960;DHT22;40860;51.710;8.736;2022-12-08T07:49:00;3.70;99.90
54960;DHT22;40860;51.710;8.736;2022-12-08T07:53:03;3.70;99.90
54960;DHT22;40860;51.710;8.736;2022-12-08T07:57:05;3.70;99.90
54960;DHT22;40860;51.710;8.736;2022-12-08T08:01:19;3.70;99.90
54960;DHT22;40860;51.710;8.736;2022-12-08T08:05:23;3.70;99.90
54960;DHT22;40860;51.710;8.736;2022-12-08T08:09:26;3.70;99.90
54960;DHT22;40860;51.710;8.736;2022-12-08T08:13:28;3.70;99.90
54960;DHT22;40860;51.710;8.736;2022-12-08T08:17:33;3.60;99.90
54960;DHT22;40860;51.710;8.736;2022-12-08T08:21:37;3.60;99.90
54960;DHT22;40860;51.710;8.736;2022-12-08T08:25:47;3.60;99.90
54960;DHT22;40860;51.710;8.736;2022-12-08T08:29:50;3.60;99.90
54960;DHT22;40860;51.710;8.736;2022-12-08T08:33:55;3.60;99.90
54960;DHT22;40860;51.710;8.736;2022-12-08T08:37:58;3.50;99.90
54960;DHT22;40860;51.710;8.736;2022-12-08T08:42:01;3.50;99.90
54960;DHT22;40860;51.710;8.736;2022-12-08T08:46:05;3.50;99.90
54960;DHT22;40860;51.710;8.736;2022-12-08T08:50:10;3.60;99.90
54960;DHT22;40860;51.710;8.736;2022-12-08T08:54:13;3.50;99.90
54960;DHT22;40860;51.710;8.736;2022-12-08T08:58:16;3.50;99.90
54960;DHT22;40860;51.710;8.736;2022-12-08T09:02:20;3.60;99.90
54960;DHT22;40860;51.710;8.736;2022-12-08T09:06:25;3.60;99.90
54960;DHT22;40860;51.710;8.736;2022-12-08T09:10:29;3.50;99.90
54960;DHT22;40860;51.710;8.736;2022-12-08T09:14:32;3.50;99.90
54960;DHT22;40860;51.710;8.736;2022-12-08T09:18:34;3.40;99.90
54960;DHT22;40860;51.710;8.736;2022-12-08T09:22:39;3.40;99.90
54960;DHT22;40860;51.710;8.736;2022-12-08T09:26:42;3.40;99.90
54960;DHT22;40860;51.710;8.736;2022-12-08T09:30:45;3.50;99.90
54960;DHT22;40860;51.710;8.736;2022-12-08T09:34:48;3.40;99.90
54960;DHT22;40860;51.710;8.736;2022-12-08T09:38:54;3.40;99.90
54960;DHT22;40860;51.710;8.736;2022-12-08T09:43:04;3.40;99.90
54960;DHT22;40860;51.710;8.736;2022-12-08T09:47:16;3.40;99.90
54960;DHT22;40860;51.710;8.736;2022-12-08T09:51:20;3.40;99.90
54960;DHT22;40860;51.710;8.736;2022-12-08T09:55:37;3.40;99.90
54960;DHT22;40860;51.710;8.736;2022-12-08T09:59:45;3.40;99.90
54960;DHT22;40860;51.710;8.736;2022-12-08T10:03:49;3.30;99.90
54960;DHT22;40860;51.710;8.736;2022-12-08T10:08:01;3.30;99.90
54960;DHT22;40860;51.710;8.736;2022-12-08T10:12:15;3.40;99.90
54960;DHT22;40860;51.710;8.736;2022-12-08T10:16:29;3.40;99.90
54960;DHT22;40860;51.710;8.736;2022-12-08T10:20:36;3.40;99.90
54960;DHT22;40860;51.710;8.736;2022-12-08T10:24:46;3.40;99.90
54960;DHT22;40860;51.710;8.736;2022-12-08T10:28:54;3.40;99.90
54960;DHT22;40860;51.710;8.736;2022-12-08T10:33:01;3.40;99.90
54960;DHT22;40860;51.710;8.736;2022-12-08T10:37:08;3.40;99.90
54960;DHT22;40860;51.710;8.736;2022-12-08T10:41:13;3.50;99.90
54960;DHT22;40860;51.710;8.736;2022-12-08T10:45:25;3.40;99.90
54960;DHT22;40860;51.710;8.736;2022-12-08T10:49:29;3.40;99.90
54960;DHT22;40860;51.710;8.736;2022-12-08T10:53:44;3.40;99.90
54960;DHT22;40860;51.710;8.736;2022-12-08T10:57:47;3.30;99.90
54960;DHT22;40860;51.710;8.736;2022-12-08T11:01:53;3.30;99.90
54960;DHT22;40860;51.710;8.736;2022-12-08T11:05:58;3.20;99.90
54960;DHT22;40860;51.710;8.736;2022-12-08T11:10:16;3.20;99.90
54960;DHT22;40860;51.710;8.736;2022-12-08T11:14:23;3.10;99.90
54960;DHT22;40860;51.710;8.736;2022-12-08T11:18:29;3.20;99.90
54960;DHT22;40860;51.710;8.736;2022-12-08T11:22:37;3.10;99.90
54960;DHT22;40860;51.710;8.736;2022-12-08T11:26:42;3.20;99.90
54960;DHT22;40860;51.710;8.736;2022-12-08T11:30:53;3.20;99.90
54960;DHT22;40860;51.710;8.736;2022-12-08T11:35:02;3.20;99.90
54960;DHT22;40860;51.710;8.736;2022-12-08T11:39:09;3.20;99.90
54960;DHT22;40860;51.710;8.736;2022-12-08T11:43:16;3.20;99.90
54960;DHT22;40860;51.710;8.736;2022-12-08T11:47:23;3.20;99.90
54960;DHT22;40860;51.710;8.736;2022-12-08T11:51:31;3.20;99.90
54960;DHT22;40860;51.710;8.736;2022-12-08T11:55:37;3.10;99.90
54960;DHT22;40860;51.710;8.736;2022-12-08T11:59:50;3.00;99.90
54960;DHT22;40860;51.710;8.736;2022-12-08T12:04:09;3.00;99.90
54960;DHT22;40860;51.710;8.736;2022-12-08T12:08:27;3.00;99.90
54960;DHT22;40860;51.710;8.736;2022-12-08T12:12:45;3.10;99.90
54960;DHT22;40860;51.710;8.736;2022-12-08T12:16:59;3.10;99.90
54960;DHT22;40860;51.710;8.736;2022-12-08T12:21:06;3.10;99.90
54960;DHT22;40860;51.710;8.736;2022-12-08T12:25:18;3.20;99.90
54960;DHT22;40860;51.710;8.736;2022-12-08T12:29:24;3.20;99.90
54960;DHT22;40860;51.710;8.736;2022-12-08T12:33:29;3.30;99.90
54960;DHT22;40860;51.710;8.736;2022-12-08T12:37:36;3.30;99.90
54960;DHT22;40860;51.710;8.736;2022-12-08T12:41:46;3.30;99.90
54960;DHT22;40860;51.710;8.736;2022-12-08T12:45:49;3.30;99.90
54960;DHT22;40860;51.710;8.736;2022-12-08T12:50:13;3.40;99.90
54960;DHT22;40860;51.710;8.736;2022-12-08T12:54:20;3.30;99.90
54960;DHT22;40860;51.710;8.736;2022-12-08T12:58:36;3.30;99.90
54960;DHT22;40860;51.710;8.736;2022-12-08T13:02:44;3.30;99.90
54960;DHT22;40860;51.710;8.736;2022-12-08T13:06:49;3.20;99.90
54960;DHT22;40860;51.710;8.736;2022-12-08T13:10:58;3.20;99.90
54960;DHT22;40860;51.710;8.736;2022-12-08T13:15:05;3.20;99.90
54960;DHT22;40860;51.710;8.736;2022-12-08T13:19:12;3.10;99.90
54960;DHT22;40860;51.710;8.736;2022-12-08T13:23:40;3.10;99.90
54960;DHT22;40860;51.710;8.736;2022-12-08T13:27:52;3.10;99.90
54960;DHT22;40860;51.710;8.736;2022-12-08T13:31:57;3.10;99.90
54960;DHT22;40860;51.710;8.736;2022-12-08T13:36:16;3.10;99.90
54960;DHT22;40860;51.710;8.736;2022-12-08T13:40:24;3.10;99.90
54960;DHT22;40860;51.710;8.736;2022-12-08T13:44:34;3.10;99.90
54960;DHT22;40860;51.710;8.736;2022-12-08T13:49:00;3.00;99.90
54960;DHT22;40860;51.710;8.736;2022-12-08T13:53:27;3.00;99.90
54960;DHT22;40860;51.710;8.736;2022-12-08T13:57:54;3.00;99.90
54960;DHT22;40860;51.710;8.736;2022-12-08T14:02:01;3.00;99.90
54960;DHT22;40860;51.710;8.736;2022-12-08T14:06:12;3.00;99.90
54960;DHT22;40860;51.710;8.736;2022-12-08T14:10:19;3.00;99.90
54960;DHT22;40860;51.710;8.736;2022-12-08T14:14:27;3.10;99.90
54960;DHT22;40860;51.710;8.736;2022-12-08T14:18:50;3.00;99.90
54960;DHT22;40860;51.710;8.736;2022-12-08T14:22:55;3.00;99.90
54960;DHT22;40860;51.710;8.736;2022-12-08T14:27:01;3.00;99.90
54960;DHT22;40860;51.710;8.736;2022-12-08T14:31:05;3.00;99.90
54960;DHT22;40860;51.710;8.736;2022-12-08T14:35:19;3.00;99.90
54960;DHT22;40860;51.710;8.736;2022-12-08T14:39:23;3.00;99.90
54960;DHT22;40860;51.710;8.736;2022-12-08T14:43:28;3.00;99.90
54960;DHT22;40860;51.710;8.736;2022-12-08T14:47:32;3.00;99.90
54960;DHT22;40860;51.710;8.736;2022-12-08T14:51:35;3.00;99.90
54960;DHT22;40860;51.710;8.736;2022-12-08T14:55:40;3.00;99.90
54960;DHT22;40860;51.710;8.736;2022-12-08T14:59:44;2.90;99.90
54960;DHT22;40860;51.710;8.736;2022-12-08T15:03:48;2.90;99.90
54960;DHT22;40860;51.710;8.736;2022-12-08T15:07:55;2.90;99.90
54960;DHT22;40860;51.710;8.736;2022-12-08T15:12:05;2.90;99.90
54960;DHT22;40860;51.710;8.736;2022-12-08T15:16:23;2.90;99.90
54960;DHT22;40860;51.710;8.736;2022-12-08T15:20:33;2.90;99.90
54960;DHT22;40860;51.710;8.736;2022-12-08T15:24:40;2.90;99.90
54960;DHT22;40860;51.710;8.736;2022-12-08T15:28:44;2.90;99.90
54960;DHT22;40860;51.710;8.736;2022-12-08T15:32:47;2.80;99.90
54960;DHT22;40860;51.710;8.736;2022-12-08T15:36:53;2.80;99.90
54960;DHT22;40860;51.710;8.736;2022-12-08T15:40:56;2.90;99.90
54960;DHT22;40860;51.710;8.736;2022-12-08T15:45:01;2.80;99.90
54960;DHT22;40860;51.710;8.736;2022-12-08T15:49:04;2.80;99.90
54960;DHT22;40860;51.710;8.736;2022-12-08T15:53:07;2.80;99.90
54960;DHT22;40860;51.710;8.736;2022-12-08T15:57:20;2.80;99.90
54960;DHT22;40860;51.710;8.736;2022-12-08T16:01:45;2.70;99.90
54960;DHT22;40860;51.710;8.736;2022-12-08T16:05:48;2.70;99.90
54960;DHT22;40860;51.710;8.736;2022-12-08T16:10:14;2.70;99.90
54960;DHT22;40860;51.710;8.736;2022-12-08T16:14:18;2.70;99.90
54960;DHT22;40860;51.710;8.736;2022-12-08T16:18:42;2.70;99.90
54960;DHT22;40860;51.710;8.736;2022-12-08T16:22:45;2.70;99.90
54960;DHT22;40860;51.710;8.736;2022-12-08T16:27:09;2.70;99.90
54960;DHT22;40860;51.710;8.736;2022-12-08T16:31:36;2.70;99.90
54960;DHT22;40860;51.710;8.736;2022-12-08T16:35:41;2.70;99.90
54960;DHT22;40860;51.710;8.736;2022-12-08T16:39:44;2.70;99.90
54960;DHT22;40860;51.710;8.736;2022-12-08T16:43:47;2.70;99.90
54960;DHT22;40860;51.710;8.736;2022-12-08T16:47:54;2.70;99.90
54960;DHT22;40860;51.710;8.736;2022-12-08T16:51:58;2.60;99.90
54960;DHT22;40860;51.710;8.736;2022-12-08T16:56:01;2.70;99.90
54960;DHT22;40860;51.710;8.736;2022-12-08T17:00:06;2.60;99.90
54960;DHT22;40860;51.710;8.736;2022-12-08T17:04:10;2.70;99.90
54960;DHT22;40860;51.710;8.736;2022-12-08T17:08:33;2.60;99.90
54960;DHT22;40860;51.710;8.736;2022-12-08T17:12:36;2.60;99.90
54960;DHT22;40860;51.710;8.736;2022-12-08T17:16:39;2.60;99.90
54960;DHT22;40860;51.710;8.736;2022-12-08T17:20:42;2.60;99.90
54960;DHT22;40860;51.710;8.736;2022-12-08T17:24:47;2.60;99.90
54960;DHT22;40860;51.710;8.736;2022-12-08T17:28:50;2.50;99.90
54960;DHT22;40860;51.710;8.736;2022-12-08T17:33:01;2.50;99.90
54960;DHT22;40860;51.710;8.736;2022-12-08T17:37:04;2.50;99.90
54960;DHT22;40860;51.710;8.736;2022-12-08T17:41:09;2.50;99.90
54960;DHT22;40860;51.710;8.736;2022-12-08T17:45:12;2.50;99.90
54960;DHT22;40860;51.710;8.736;2022-12-08T17:49:18;2.50;99.90
54960;DHT22;40860;51.710;8.736;2022-12-08T17:53:21;2.50;99.90
54960;DHT22;40860;51.710;8.736;2022-12-08T17:57:25;2.50;99.90
54960;DHT22;40860;51.710;8.736;2022-12-08T18:01:28;2.50;99.90
54960;DHT22;40860;51.710;8.736;2022-12-08T18:05:34;2.50;99.90
54960;DHT22;40860;51.710;8.736;2022-12-08T18:09:37;2.50;99.90
54960;DHT22;40860;51.710;8.736;2022-12-08T18:13:42;2.50;99.90
54960;DHT22;40860;51.710;8.736;2022-12-08T18:17:45;2.50;99.90
54960;DHT22;40860;51.710;8.736;2022-12-08T18:21:48;2.50;99.90
54960;DHT22;40860;51.710;8.736;2022-12-08T18:25:51;2.50;99.90
54960;DHT22;40860;51.710;8.736;2022-12-08T18:29:55;2.50;99.90
54960;DHT22;40860;51.710;8.736;2022-12-08T18:33:58;2.50;99.90
54960;DHT22;40860;51.710;8.736;2022-12-08T18:38:01;2.50;99.90
54960;DHT22;40860;51.710;8.736;2022-12-08T18:42:04;2.50;99.90
54960;DHT22;40860;51.710;8.736;2022-12-08T18:46:24;2.50;99.90
54960;DHT22;40860;51.710;8.736;2022-12-08T18:50:27;2.50;99.90
54960;DHT22;40860;51.710;8.736;2022-12-08T18:54:30;2.50;99.90
54960;DHT22;40860;51.710;8.736;2022-12-08T18:58:53;2.50;99.90
54960;DHT22;40860;51.710;8.736;2022-12-08T19:03:06;2.60;99.90
54960;DHT22;40860;51.710;8.736;2022-12-08T19:07:09;2.60;99.90
54960;DHT22;40860;51.710;8.736;2022-12-08T19:11:19;2.50;99.90
54960;DHT22;40860;51.710;8.736;2022-12-08T19:15:22;2.60;99.90
54960;DHT22;40860;51.710;8.736;2022-12-08T19:19:27;2.60;99.90
54960;DHT22;40860;51.710;8.736;2022-12-08T19:23:29;2.60;99.90
54960;DHT22;40860;51.710;8.736;2022-12-08T19:27:32;2.60;99.90
54960;DHT22;40860;51.710;8.736;2022-12-08T19:31:36;2.60;99.90
54960;DHT22;40860;51.710;8.736;2022-12-08T19:35:44;2.70;99.90
54960;DHT22;40860;51.710;8.736;2022-12-08T19:39:57;2.70;99.90
54960;DHT22;40860;51.710;8.736;2022-12-08T19:44:20;2.70;99.90
54960;DHT22;40860;51.710;8.736;2022-12-08T19:48:41;2.70;99.90
54960;DHT22;40860;51.710;8.736;2022-12-08T19:52:45;2.70;99.90
54960;DHT22;40860;51.710;8.736;2022-12-08T19:56:48;2.70;99.90
54960;DHT22;40860;51.710;8.736;2022-12-08T20:00:51;2.70;99.90
54960;DHT22;40860;51.710;8.736;2022-12-08T20:04:54;2.70;99.90
54960;DHT22;40860;51.710;8.736;2022-12-08T20:08:59;2.60;99.90
54960;DHT22;40860;51.710;8.736;2022-12-08T20:13:03;2.60;99.90
54960;DHT22;40860;51.710;8.736;2022-12-08T20:17:35;2.60;99.90
54960;DHT22;40860;51.710;8.736;2022-12-08T20:21:41;2.50;99.90
54960;DHT22;40860;51.710;8.736;2022-12-08T20:25:45;2.50;99.90
54960;DHT22;40860;51.710;8.736;2022-12-08T20:29:49;2.40;99.90
54960;DHT22;40860;51.710;8.736;2022-12-08T20:33:52;2.30;99.90
54960;DHT22;40860;51.710;8.736;2022-12-08T20:37:55;2.30;99.90
54960;DHT22;40860;51.710;8.736;2022-12-08T20:42:00;2.20;99.90
54960;DHT22;40860;51.710;8.736;2022-12-08T20:46:06;2.20;99.90
54960;DHT22;40860;51.710;8.736;2022-12-08T20:50:10;2.10;99.90
54960;DHT22;40860;51.710;8.736;2022-12-08T20:54:13;2.10;99.90
54960;DHT22;40860;51.710;8.736;2022-12-08T20:58:17;2.00;99.90
54960;DHT22;40860;51.710;8.736;2022-12-08T21:02:21;1.90;99.90
54960;DHT22;40860;51.710;8.736;2022-12-08T21:06:25;1.80;99.90
54960;DHT22;40860;51.710;8.736;2022-12-08T21:10:28;1.90;99.90
54960;DHT22;40860;51.710;8.736;2022-12-08T21:14:33;1.90;99.90
54960;DHT22;40860;51.710;8.736;2022-12-08T21:18:36;1.90;99.90
54960;DHT22;40860;51.710;8.736;2022-12-08T21:22:40;1.90;99.90
54960;DHT22;40860;51.710;8.736;2022-12-08T21:26:43;1.80;99.90
54960;DHT22;40860;51.710;8.736;2022-12-08T21:30:48;1.90;99.90
54960;DHT22;40860;51.710;8.736;2022-12-08T21:34:52;1.90;99.90
54960;DHT22;40860;51.710;8.736;2022-12-08T21:38:56;1.80;99.90
54960;DHT22;40860;51.710;8.736;2022-12-08T21:43:03;1.70;99.90
54960;DHT22;40860;51.710;8.736;2022-12-08T21:47:07;1.70;99.90
54960;DHT22;40860;51.710;8.736;2022-12-08T21:51:10;1.60;99.90
54960;DHT22;40860;51.710;8.736;2022-12-08T21:55:14;1.60;99.90
54960;DHT22;40860;51.710;8.736;2022-12-08T21:59:19;1.60;99.90
54960;DHT22;40860;51.710;8.736;2022-12-08T22:03:23;1.50;99.90
54960;DHT22;40860;51.710;8.736;2022-12-08T22:07:27;1.40;99.90
54960;DHT22;40860;51.710;8.736;2022-12-08T22:11:30;1.50;99.90
54960;DHT22;40860;51.710;8.736;2022-12-08T22:15:34;1.40;99.90
54960;DHT22;40860;51.710;8.736;2022-12-08T22:19:38;1.40;99.90
54960;DHT22;40860;51.710;8.736;2022-12-08T22:23:42;1.40;99.90
54960;DHT22;40860;51.710;8.736;2022-12-08T22:27:45;1.40;99.90
54960;DHT22;40860;51.710;8.736;2022-12-08T22:31:48;1.40;99.90
54960;DHT22;40860;51.710;8.736;2022-12-08T22:35:57;1.40;99.90
54960;DHT22;40860;51.710;8.736;2022-12-08T22:40:09;1.30;99.90
54960;DHT22;40860;51.710;8.736;2022-12-08T22:44:13;1.30;99.90
54960;DHT22;40860;51.710;8.736;2022-12-08T22:48:17;1.30;99.90
54960;DHT22;40860;51.710;8.736;2022-12-08T22:52:21;1.30;99.90
54960;DHT22;40860;51.710;8.736;2022-12-08T22:56:24;1.30;99.90
54960;DHT22;40860;51.710;8.736;2022-12-08T23:00:27;1.30;99.90
54960;DHT22;40860;51.710;8.736;2022-12-08T23:04:30;1.30;99.90
54960;DHT22;40860;51.710;8.736;2022-12-08T23:08:35;1.40;99.90
54960;DHT22;40860;51.710;8.736;2022-12-08T23:12:38;1.40;99.90
54960;DHT22;40860;51.710;8.736;2022-12-08T23:16:41;1.40;99.90
54960;DHT22;40860;51.710;8.736;2022-12-08T23:20:44;1.30;99.90
54960;DHT22;40860;51.710;8.736;2022-12-08T23:24:48;1.40;99.90
54960;DHT22;40860;51.710;8.736;2022-12-08T23:28:51;1.40;99.90
54960;DHT22;40860;51.710;8.736;2022-12-08T23:32:55;1.40;99.90
54960;DHT22;40860;51.710;8.736;2022-12-08T23:36:58;1.40;99.90
54960;DHT22;40860;51.710;8.736;2022-12-08T23:41:04;1.40;99.90
54960;DHT22;40860;51.710;8.736;2022-12-08T23:45:07;1.40;99.90
54960;DHT22;40860;51.710;8.736;2022-12-08T23:49:10;1.40;99.90
54960;DHT22;40860;51.710;8.736;2022-12-08T23:53:13;1.40;99.90
54960;DHT22;40860;51.710;8.736;2022-12-08T23:57:18;1.40;99.90
